sensor_id;sensor_type;location;lat;lon;timestamp;P1;durP1;ratioP1;P2;durP2;ratioP2
1677;SDS011;6034;46.864;15.216;2023-04-03T05:01:48;2.95;;;1.60;;
1677;SDS011;6034;46.864;15.216;2023-04-03T05:04:17;2.60;;;1.42;;
1677;SDS011;6034;46.864;15.216;2023-04-03T05:06:46;2.58;;;1.75;;
1677;SDS011;6034;46.864;15.216;2023-04-03T05:09:14;2.08;;;1.45;;
1677;SDS011;6034;46.864;15.216;2023-04-03T05:11:41;2.42;;;1.70;;
1677;SDS011;6034;46.864;15.216;2023-04-03T05:14:09;2.92;;;1.50;;
1677;SDS011;6034;46.864;15.216;2023-04-03T05:16:36;2.92;;;1.48;;
1677;SDS011;6034;46.864;15.216;2023-04-03T05:19:05;1.95;;;1.40;;
1677;SDS011;6034;46.864;15.216;2023-04-03T05:21:32;2.55;;;1.83;;
1677;SDS011;6034;46.864;15.216;2023-04-03T05:24:00;1.70;;;1.10;;
1677;SDS011;6034;46.864;15.216;2023-04-03T05:26:29;4.78;;;2.50;;
1677;SDS011;6034;46.864;15.216;2023-04-03T05:28:57;2.55;;;1.42;;
1677;SDS011;6034;46.864;15.216;2023-04-03T05:31:24;2.30;;;1.60;;
1677;SDS011;6034;46.864;15.216;2023-04-03T05:33:54;2.00;;;1.27;;
1677;SDS011;6034;46.864;15.216;2023-04-03T05:36:23;2.17;;;1.27;;
1677;SDS011;6034;46.864;15.216;2023-04-03T05:38:51;2.30;;;1.40;;
1677;SDS011;6034;46.864;15.216;2023-04-03T05:41:18;2.45;;;1.50;;
1677;SDS011;6034;46.864;15.216;2023-04-03T05:43:46;2.63;;;1.55;;
1677;SDS011;6034;46.864;15.216;2023-04-03T05:46:15;1.95;;;1.30;;
1677;SDS011;6034;46.864;15.216;2023-04-03T05:48:44;2.13;;;1.40;;
1677;SDS011;6034;46.864;15.216;2023-04-03T05:51:13;3.25;;;1.80;;
1677;SDS011;6034;46.864;15.216;2023-04-03T05:53:45;3.08;;;1.55;;
1677;SDS011;6034;46.864;15.216;2023-04-03T05:56:13;2.08;;;1.13;;
1677;SDS011;6034;46.864;15.216;2023-04-03T05:58:40;2.33;;;1.00;;
1677;SDS011;6034;46.864;15.216;2023-04-03T06:01:08;2.20;;;1.20;;
1677;SDS011;6034;46.864;15.216;2023-04-03T06:03:35;2.67;;;1.60;;
1677;SDS011;6034;46.864;15.216;2023-04-03T06:06:04;1.50;;;0.95;;
1677;SDS011;6034;46.864;15.216;2023-04-03T06:08:33;2.67;;;1.25;;
1677;SDS011;6034;46.864;15.216;2023-04-03T06:11:02;2.55;;;1.55;;
1677;SDS011;6034;46.864;15.216;2023-04-03T06:13:29;1.60;;;1.02;;
1677;SDS011;6034;46.864;15.216;2023-04-03T06:15:57;2.53;;;1.25;;
1677;SDS011;6034;46.864;15.216;2023-04-03T06:18:24;2.42;;;0.90;;
1677;SDS011;6034;46.864;15.216;2023-04-03T06:20:51;2.88;;;1.88;;
1677;SDS011;6034;46.864;15.216;2023-04-03T06:23:19;1.92;;;1.23;;
1677;SDS011;6034;46.864;15.216;2023-04-03T06:25:46;1.83;;;1.15;;
1677;SDS011;6034;46.864;15.216;2023-04-03T06:28:15;2.78;;;1.45;;
1677;SDS011;6034;46.864;15.216;2023-04-03T06:30:44;2.60;;;1.48;;
1677;SDS011;6034;46.864;15.216;2023-04-03T06:33:12;2.45;;;1.33;;
1677;SDS011;6034;46.864;15.216;2023-04-03T06:35:39;1.98;;;0.90;;
1677;SDS011;6034;46.864;15.216;2023-04-03T06:38:07;1.65;;;1.02;;
1677;SDS011;6034;46.864;15.216;2023-04-03T06:40:36;2.38;;;1.20;;
1677;SDS011;6034;46.864;15.216;2023-04-03T06:43:03;1.70;;;1.10;;
1677;SDS011;6034;46.864;15.216;2023-04-03T06:45:34;1.50;;;0.93;;
1677;SDS011;6034;46.864;15.216;2023-04-03T06:48:01;2.00;;;1.30;;
1677;SDS011;6034;46.864;15.216;2023-04-03T06:50:28;2.47;;;1.10;;
1677;SDS011;6034;46.864;15.216;2023-04-03T06:52:56;1.67;;;0.95;;
1677;SDS011;6034;46.864;15.216;2023-04-03T06:55:23;2.20;;;1.52;;
1677;SDS011;6034;46.864;15.216;2023-04-03T06:57:54;3.20;;;1.58;;
1677;SDS011;6034;46.864;15.216;2023-04-03T07:00:28;2.20;;;0.95;;
1677;SDS011;6034;46.864;15.216;2023-04-03T07:02:58;3.35;;;1.73;;
1677;SDS011;6034;46.864;15.216;2023-04-03T07:05:25;2.05;;;1.63;;
1677;SDS011;6034;46.864;15.216;2023-04-03T07:07:53;1.40;;;0.95;;
1677;SDS011;6034;46.864;15.216;2023-04-03T07:10:20;2.10;;;1.20;;
1677;SDS011;6034;46.864;15.216;2023-04-03T07:12:48;3.70;;;1.02;;
1677;SDS011;6034;46.864;15.216;2023-04-03T07:15:16;2.40;;;1.02;;
1677;SDS011;6034;46.864;15.216;2023-04-03T07:17:44;2.38;;;1.23;;
1677;SDS011;6034;46.864;15.216;2023-04-03T07:20:13;2.70;;;1.08;;
1677;SDS011;6034;46.864;15.216;2023-04-03T07:22:40;3.08;;;0.90;;
1677;SDS011;6034;46.864;15.216;2023-04-03T07:25:07;3.33;;;2.35;;
1677;SDS011;6034;46.864;15.216;2023-04-03T07:27:36;2.53;;;1.70;;
1677;SDS011;6034;46.864;15.216;2023-04-03T07:30:04;2.13;;;0.80;;
1677;SDS011;6034;46.864;15.216;2023-04-03T07:32:33;2.20;;;1.30;;
1677;SDS011;6034;46.864;15.216;2023-04-03T07:35:00;2.28;;;1.15;;
1677;SDS011;6034;46.864;15.216;2023-04-03T07:37:29;1.30;;;0.90;;
1677;SDS011;6034;46.864;15.216;2023-04-03T07:39:57;1.90;;;1.25;;
1677;SDS011;6034;46.864;15.216;2023-04-03T07:42:25;1.40;;;0.80;;
1677;SDS011;6034;46.864;15.216;2023-04-03T07:44:52;2.58;;;1.10;;
1677;SDS011;6034;46.864;15.216;2023-04-03T07:47:20;2.50;;;0.88;;
1677;SDS011;6034;46.864;15.216;2023-04-03T07:49:48;2.10;;;0.82;;
1677;SDS011;6034;46.864;15.216;2023-04-03T07:52:15;1.75;;;0.82;;
1677;SDS011;6034;46.864;15.216;2023-04-03T07:54:44;1.20;;;0.60;;
1677;SDS011;6034;46.864;15.216;2023-04-03T07:57:12;1.73;;;1.00;;
1677;SDS011;6034;46.864;15.216;2023-04-03T07:59:39;1.23;;;0.73;;
1677;SDS011;6034;46.864;15.216;2023-04-03T08:02:08;1.60;;;0.80;;
1677;SDS011;6034;46.864;15.216;2023-04-03T08:04:36;1.30;;;0.70;;
1677;SDS011;6034;46.864;15.216;2023-04-03T08:07:03;1.85;;;1.00;;
1677;SDS011;6034;46.864;15.216;2023-04-03T08:09:31;1.75;;;0.80;;
1677;SDS011;6034;46.864;15.216;2023-04-03T08:12:00;1.48;;;0.60;;
1677;SDS011;6034;46.864;15.216;2023-04-03T08:14:27;1.42;;;0.80;;
1677;SDS011;6034;46.864;15.216;2023-04-03T08:16:59;1.73;;;0.65;;
1677;SDS011;6034;46.864;15.216;2023-04-03T08:19:29;2.17;;;1.10;;
1677;SDS011;6034;46.864;15.216;2023-04-03T08:21:57;2.85;;;0.90;;
1677;SDS011;6034;46.864;15.216;2023-04-03T08:24:26;1.58;;;0.90;;
1677;SDS011;6034;46.864;15.216;2023-04-03T08:26:53;1.30;;;0.70;;
1677;SDS011;6034;46.864;15.216;2023-04-03T08:29:22;2.38;;;1.52;;
1677;SDS011;6034;46.864;15.216;2023-04-03T08:31:50;4.05;;;1.00;;
1677;SDS011;6034;46.864;15.216;2023-04-03T08:36:45;1.30;;;0.70;;
1677;SDS011;6034;46.864;15.216;2023-04-03T08:39:13;1.70;;;1.00;;
1677;SDS011;6034;46.864;15.216;2023-04-03T08:41:40;1.83;;;1.00;;
1677;SDS011;6034;46.864;15.216;2023-04-03T08:44:14;2.03;;;1.00;;
1677;SDS011;6034;46.864;15.216;2023-04-03T08:46:53;1.70;;;1.10;;
1677;SDS011;6034;46.864;15.216;2023-04-03T08:49:30;2.58;;;1.05;;
1677;SDS011;6034;46.864;15.216;2023-04-03T08:51:59;2.55;;;1.20;;
1677;SDS011;6034;46.864;15.216;2023-04-03T08:54:32;1.55;;;0.80;;
1677;SDS011;6034;46.864;15.216;2023-04-03T08:57:02;1.60;;;1.00;;
1677;SDS011;6034;46.864;15.216;2023-04-03T08:59:33;1.65;;;0.90;;
1677;SDS011;6034;46.864;15.216;2023-04-03T09:02:15;1.50;;;0.90;;
1677;SDS011;6034;46.864;15.216;2023-04-03T09:04:52;4.18;;;1.05;;
1677;SDS011;6034;46.864;15.216;2023-04-03T09:07:22;1.40;;;1.00;;
1677;SDS011;6034;46.864;15.216;2023-04-03T09:09:56;1.55;;;1.00;;
1677;SDS011;6034;46.864;15.216;2023-04-03T09:12:32;1.40;;;0.82;;
1677;SDS011;6034;46.864;15.216;2023-04-03T09:15:05;1.60;;;0.80;;
1677;SDS011;6034;46.864;15.216;2023-04-03T09:17:49;1.55;;;0.90;;
1677;SDS011;6034;46.864;15.216;2023-04-03T09:20:25;2.97;;;1.15;;
1677;SDS011;6034;46.864;15.216;2023-04-03T09:23:03;2.45;;;1.30;;
1677;SDS011;6034;46.864;15.216;2023-04-03T09:25:40;2.55;;;1.20;;
1677;SDS011;6034;46.864;15.216;2023-04-03T09:28:11;1.90;;;1.15;;
1677;SDS011;6034;46.864;15.216;2023-04-03T09:30:38;1.88;;;0.88;;
1677;SDS011;6034;46.864;15.216;2023-04-03T09:33:08;2.50;;;1.05;;
1677;SDS011;6034;46.864;15.216;2023-04-03T09:35:36;2.03;;;0.80;;
1677;SDS011;6034;46.864;15.216;2023-04-03T09:38:14;2.60;;;1.20;;
1677;SDS011;6034;46.864;15.216;2023-04-03T09:40:44;1.30;;;0.85;;
1677;SDS011;6034;46.864;15.216;2023-04-03T09:43:21;1.35;;;0.60;;
1677;SDS011;6034;46.864;15.216;2023-04-03T09:45:51;1.80;;;0.80;;
1677;SDS011;6034;46.864;15.216;2023-04-03T09:48:22;1.85;;;1.00;;
1677;SDS011;6034;46.864;15.216;2023-04-03T09:50:57;1.85;;;1.05;;
1677;SDS011;6034;46.864;15.216;2023-04-03T09:53:30;3.75;;;1.63;;
1677;SDS011;6034;46.864;15.216;2023-04-03T09:56:00;1.65;;;0.95;;
1677;SDS011;6034;46.864;15.216;2023-04-03T09:58:30;1.90;;;0.80;;
1677;SDS011;6034;46.864;15.216;2023-04-03T10:01:01;2.35;;;1.00;;
1677;SDS011;6034;46.864;15.216;2023-04-03T10:03:31;2.05;;;0.95;;
1677;SDS011;6034;46.864;15.216;2023-04-03T10:06:00;1.40;;;0.90;;
1677;SDS011;6034;46.864;15.216;2023-04-03T10:08:29;1.42;;;0.73;;
1677;SDS011;6034;46.864;15.216;2023-04-03T10:11:15;1.20;;;0.57;;
1677;SDS011;6034;46.864;15.216;2023-04-03T10:13:50;1.45;;;0.82;;
1677;SDS011;6034;46.864;15.216;2023-04-03T10:16:20;1.70;;;0.95;;
1677;SDS011;6034;46.864;15.216;2023-04-03T10:18:56;2.85;;;1.02;;
1677;SDS011;6034;46.864;15.216;2023-04-03T10:21:39;1.65;;;0.77;;
1677;SDS011;6034;46.864;15.216;2023-04-03T10:24:11;1.48;;;0.70;;
1677;SDS011;6034;46.864;15.216;2023-04-03T10:26:45;1.60;;;0.80;;
1677;SDS011;6034;46.864;15.216;2023-04-03T10:29:22;1.52;;;0.90;;
1677;SDS011;6034;46.864;15.216;2023-04-03T10:32:01;1.10;;;0.70;;
1677;SDS011;6034;46.864;15.216;2023-04-03T10:34:42;1.95;;;0.77;;
1677;SDS011;6034;46.864;15.216;2023-04-03T10:37:13;1.33;;;0.80;;
1677;SDS011;6034;46.864;15.216;2023-04-03T10:39:50;1.90;;;0.90;;
1677;SDS011;6034;46.864;15.216;2023-04-03T10:42:26;2.72;;;0.75;;
1677;SDS011;6034;46.864;15.216;2023-04-03T10:45:03;1.40;;;0.90;;
1677;SDS011;6034;46.864;15.216;2023-04-03T10:47:46;1.50;;;0.90;;
1677;SDS011;6034;46.864;15.216;2023-04-03T10:50:26;1.25;;;0.65;;
1677;SDS011;6034;46.864;15.216;2023-04-03T10:53:01;1.27;;;0.70;;
1677;SDS011;6034;46.864;15.216;2023-04-03T10:55:35;2.10;;;1.05;;
1677;SDS011;6034;46.864;15.216;2023-04-03T10:58:05;1.65;;;0.68;;
1677;SDS011;6034;46.864;15.216;2023-04-03T11:00:36;1.30;;;0.68;;
1677;SDS011;6034;46.864;15.216;2023-04-03T11:03:10;1.20;;;0.52;;
1677;SDS011;6034;46.864;15.216;2023-04-03T11:05:42;1.60;;;0.98;;
1677;SDS011;6034;46.864;15.216;2023-04-03T11:08:13;1.90;;;1.10;;
1677;SDS011;6034;46.864;15.216;2023-04-03T11:10:48;1.48;;;0.57;;
1677;SDS011;6034;46.864;15.216;2023-04-03T11:13:18;1.40;;;0.63;;
1677;SDS011;6034;46.864;15.216;2023-04-03T11:15:49;1.73;;;0.80;;
1677;SDS011;6034;46.864;15.216;2023-04-03T11:18:20;1.98;;;0.80;;
1677;SDS011;6034;46.864;15.216;2023-04-03T11:20:57;1.58;;;0.95;;
1677;SDS011;6034;46.864;15.216;2023-04-03T11:23:30;1.55;;;1.00;;
1677;SDS011;6034;46.864;15.216;2023-04-03T11:26:07;1.83;;;0.88;;
1677;SDS011;6034;46.864;15.216;2023-04-03T11:28:36;1.30;;;0.70;;
1677;SDS011;6034;46.864;15.216;2023-04-03T11:31:09;1.33;;;0.70;;
1677;SDS011;6034;46.864;15.216;2023-04-03T11:33:55;1.60;;;1.00;;
1677;SDS011;6034;46.864;15.216;2023-04-03T11:36:33;1.33;;;0.73;;
1677;SDS011;6034;46.864;15.216;2023-04-03T11:39:10;1.70;;;1.30;;
1677;SDS011;6034;46.864;15.216;2023-04-03T11:41:46;1.90;;;1.20;;
1677;SDS011;6034;46.864;15.216;2023-04-03T11:47:06;1.50;;;0.90;;
1677;SDS011;6034;46.864;15.216;2023-04-03T11:49:56;1.52;;;0.75;;
1677;SDS011;6034;46.864;15.216;2023-04-03T11:58:19;1.70;;;0.82;;
1677;SDS011;6034;46.864;15.216;2023-04-03T12:00:49;1.42;;;0.70;;
1677;SDS011;6034;46.864;15.216;2023-04-03T12:12:56;1.80;;;1.17;;
1677;SDS011;6034;46.864;15.216;2023-04-03T12:18:32;1.80;;;1.35;;
1677;SDS011;6034;46.864;15.216;2023-04-03T12:21:11;1.58;;;1.15;;
1677;SDS011;6034;46.864;15.216;2023-04-03T12:23:57;2.55;;;1.10;;
1677;SDS011;6034;46.864;15.216;2023-04-03T12:26:36;1.60;;;0.90;;
1677;SDS011;6034;46.864;15.216;2023-04-03T12:29:14;1.30;;;0.95;;
1677;SDS011;6034;46.864;15.216;2023-04-03T12:31:52;1.80;;;1.35;;
1677;SDS011;6034;46.864;15.216;2023-04-03T12:34:41;1.60;;;1.10;;
1677;SDS011;6034;46.864;15.216;2023-04-03T12:37:26;1.35;;;0.77;;
1677;SDS011;6034;46.864;15.216;2023-04-03T12:40:10;2.80;;;1.30;;
1677;SDS011;6034;46.864;15.216;2023-04-03T12:42:55;2.97;;;1.25;;
1677;SDS011;6034;46.864;15.216;2023-04-03T12:45:38;2.22;;;1.35;;
1677;SDS011;6034;46.864;15.216;2023-04-03T12:48:12;1.50;;;1.00;;
1677;SDS011;6034;46.864;15.216;2023-04-03T12:50:43;1.10;;;0.65;;
1677;SDS011;6034;46.864;15.216;2023-04-03T12:53:14;1.40;;;1.05;;
1677;SDS011;6034;46.864;15.216;2023-04-03T12:55:44;1.70;;;0.70;;
1677;SDS011;6034;46.864;15.216;2023-04-03T12:58:19;1.58;;;0.93;;
1677;SDS011;6034;46.864;15.216;2023-04-03T13:00:58;1.80;;;1.33;;
1677;SDS011;6034;46.864;15.216;2023-04-03T13:03:27;2.33;;;1.40;;
1677;SDS011;6034;46.864;15.216;2023-04-03T13:05:57;1.70;;;1.13;;
1677;SDS011;6034;46.864;15.216;2023-04-03T13:08:27;1.85;;;1.20;;
1677;SDS011;6034;46.864;15.216;2023-04-03T13:10:56;2.30;;;1.20;;
1677;SDS011;6034;46.864;15.216;2023-04-03T13:13:29;4.65;;;1.67;;
1677;SDS011;6034;46.864;15.216;2023-04-03T13:15:56;1.80;;;0.90;;
1677;SDS011;6034;46.864;15.216;2023-04-03T13:18:26;1.85;;;1.10;;
1677;SDS011;6034;46.864;15.216;2023-04-03T13:20:57;1.40;;;0.80;;
1677;SDS011;6034;46.864;15.216;2023-04-03T13:23:27;2.25;;;0.80;;
1677;SDS011;6034;46.864;15.216;2023-04-03T13:25:56;1.95;;;1.00;;
1677;SDS011;6034;46.864;15.216;2023-04-03T13:28:30;1.83;;;1.10;;
1677;SDS011;6034;46.864;15.216;2023-04-03T13:31:00;1.70;;;1.10;;
1677;SDS011;6034;46.864;15.216;2023-04-03T13:33:32;2.03;;;1.00;;
1677;SDS011;6034;46.864;15.216;2023-04-03T13:36:04;2.00;;;0.73;;
1677;SDS011;6034;46.864;15.216;2023-04-03T13:38:34;1.85;;;1.00;;
1677;SDS011;6034;46.864;15.216;2023-04-03T13:41:03;1.52;;;0.80;;
1677;SDS011;6034;46.864;15.216;2023-04-03T13:43:49;1.60;;;1.13;;
1677;SDS011;6034;46.864;15.216;2023-04-03T13:46:24;1.60;;;1.08;;
1677;SDS011;6034;46.864;15.216;2023-04-03T13:48:54;1.80;;;1.17;;
1677;SDS011;6034;46.864;15.216;2023-04-03T13:51:24;2.17;;;1.17;;
1677;SDS011;6034;46.864;15.216;2023-04-03T13:53:53;1.90;;;1.00;;
1677;SDS011;6034;46.864;15.216;2023-04-03T13:56:25;2.08;;;1.35;;
1677;SDS011;6034;46.864;15.216;2023-04-03T13:59:00;1.88;;;1.10;;
1677;SDS011;6034;46.864;15.216;2023-04-03T14:01:37;2.63;;;1.17;;
1677;SDS011;6034;46.864;15.216;2023-04-03T14:04:11;1.92;;;1.17;;
1677;SDS011;6034;46.864;15.216;2023-04-03T14:06:43;1.20;;;0.60;;
1677;SDS011;6034;46.864;15.216;2023-04-03T14:09:10;1.42;;;0.90;;
1677;SDS011;6034;46.864;15.216;2023-04-03T14:11:40;1.55;;;0.90;;
1677;SDS011;6034;46.864;15.216;2023-04-03T14:14:11;1.73;;;1.20;;
1677;SDS011;6034;46.864;15.216;2023-04-03T14:16:43;2.47;;;1.30;;
1677;SDS011;6034;46.864;15.216;2023-04-03T14:19:16;1.92;;;1.10;;
1677;SDS011;6034;46.864;15.216;2023-04-03T14:21:46;1.85;;;0.98;;
1677;SDS011;6034;46.864;15.216;2023-04-03T14:24:14;1.40;;;0.88;;
1677;SDS011;6034;46.864;15.216;2023-04-03T14:26:41;2.28;;;1.00;;
1677;SDS011;6034;46.864;15.216;2023-04-03T14:29:12;1.80;;;1.00;;
1677;SDS011;6034;46.864;15.216;2023-04-03T14:31:40;2.47;;;1.20;;
1677;SDS011;6034;46.864;15.216;2023-04-03T14:34:09;1.77;;;0.85;;
1677;SDS011;6034;46.864;15.216;2023-04-03T14:36:37;1.45;;;0.60;;
1677;SDS011;6034;46.864;15.216;2023-04-03T14:39:06;2.45;;;1.13;;
1677;SDS011;6034;46.864;15.216;2023-04-03T14:41:34;2.30;;;1.08;;
1677;SDS011;6034;46.864;15.216;2023-04-03T14:44:02;1.45;;;0.90;;
1677;SDS011;6034;46.864;15.216;2023-04-03T14:46:32;1.25;;;0.70;;
1677;SDS011;6034;46.864;15.216;2023-04-03T14:49:02;3.38;;;0.98;;
1677;SDS011;6034;46.864;15.216;2023-04-03T14:51:33;1.70;;;0.90;;
1677;SDS011;6034;46.864;15.216;2023-04-03T14:54:03;1.60;;;0.80;;
1677;SDS011;6034;46.864;15.216;2023-04-03T14:56:34;1.40;;;0.70;;
1677;SDS011;6034;46.864;15.216;2023-04-03T14:59:01;1.75;;;0.90;;
1677;SDS011;6034;46.864;15.216;2023-04-03T15:01:30;1.73;;;1.02;;
1677;SDS011;6034;46.864;15.216;2023-04-03T15:03:57;1.00;;;0.60;;
1677;SDS011;6034;46.864;15.216;2023-04-03T15:06:25;3.75;;;1.20;;
1677;SDS011;6034;46.864;15.216;2023-04-03T15:08:53;1.35;;;0.75;;
1677;SDS011;6034;46.864;15.216;2023-04-03T15:11:21;1.63;;;0.95;;
1677;SDS011;6034;46.864;15.216;2023-04-03T15:13:48;1.65;;;1.05;;
1677;SDS011;6034;46.864;15.216;2023-04-03T15:16:16;2.20;;;1.30;;
1677;SDS011;6034;46.864;15.216;2023-04-03T15:18:46;2.38;;;0.90;;
1677;SDS011;6034;46.864;15.216;2023-04-03T15:21:15;1.75;;;1.00;;
1677;SDS011;6034;46.864;15.216;2023-04-03T15:23:42;1.45;;;0.90;;
1677;SDS011;6034;46.864;15.216;2023-04-03T15:26:10;2.25;;;1.00;;
1677;SDS011;6034;46.864;15.216;2023-04-03T15:28:38;1.50;;;0.85;;
1677;SDS011;6034;46.864;15.216;2023-04-03T15:31:07;2.45;;;1.20;;
1677;SDS011;6034;46.864;15.216;2023-04-03T15:33:36;1.58;;;1.00;;
1677;SDS011;6034;46.864;15.216;2023-04-03T15:36:07;1.42;;;0.80;;
1677;SDS011;6034;46.864;15.216;2023-04-03T15:38:36;2.30;;;1.17;;
1677;SDS011;6034;46.864;15.216;2023-04-03T15:41:05;1.90;;;1.10;;
1677;SDS011;6034;46.864;15.216;2023-04-03T15:43:33;1.95;;;1.08;;
1677;SDS011;6034;46.864;15.216;2023-04-03T15:46:01;1.98;;;0.85;;
1677;SDS011;6034;46.864;15.216;2023-04-03T15:48:29;3.15;;;1.23;;
1677;SDS011;6034;46.864;15.216;2023-04-03T15:50:56;1.83;;;1.10;;
1677;SDS011;6034;46.864;15.216;2023-04-03T15:53:25;1.40;;;0.98;;
1677;SDS011;6034;46.864;15.216;2023-04-03T15:55:53;1.95;;;1.40;;
1677;SDS011;6034;46.864;15.216;2023-04-03T15:58:20;1.55;;;1.00;;
1677;SDS011;6034;46.864;15.216;2023-04-03T16:00:48;1.70;;;1.00;;
1677;SDS011;6034;46.864;15.216;2023-04-03T16:03:16;1.88;;;1.17;;
1677;SDS011;6034;46.864;15.216;2023-04-03T16:05:45;1.50;;;0.90;;
1677;SDS011;6034;46.864;15.216;2023-04-03T16:08:12;1.20;;;0.82;;
1677;SDS011;6034;46.864;15.216;2023-04-03T16:10:42;2.00;;;1.00;;
1677;SDS011;6034;46.864;15.216;2023-04-03T16:13:12;1.63;;;1.02;;
1677;SDS011;6034;46.864;15.216;2023-04-03T16:15:40;2.05;;;1.20;;
1677;SDS011;6034;46.864;15.216;2023-04-03T16:18:08;1.85;;;1.17;;
1677;SDS011;6034;46.864;15.216;2023-04-03T16:20:36;1.77;;;1.30;;
1677;SDS011;6034;46.864;15.216;2023-04-03T16:23:04;1.60;;;1.00;;
1677;SDS011;6034;46.864;15.216;2023-04-03T16:25:31;1.63;;;1.00;;
1677;SDS011;6034;46.864;15.216;2023-04-03T16:28:01;1.50;;;1.10;;
1677;SDS011;6034;46.864;15.216;2023-04-03T16:30:29;4.30;;;1.75;;
1677;SDS011;6034;46.864;15.216;2023-04-03T16:32:56;5.78;;;2.90;;
1677;SDS011;6034;46.864;15.216;2023-04-03T16:35:24;2.95;;;1.40;;
1677;SDS011;6034;46.864;15.216;2023-04-03T16:37:51;2.60;;;1.35;;
1677;SDS011;6034;46.864;15.216;2023-04-03T16:40:18;2.15;;;1.00;;
1677;SDS011;6034;46.864;15.216;2023-04-03T16:42:46;1.80;;;1.08;;
1677;SDS011;6034;46.864;15.216;2023-04-03T16:45:15;2.65;;;1.05;;
1677;SDS011;6034;46.864;15.216;2023-04-03T16:47:43;1.63;;;0.98;;
1677;SDS011;6034;46.864;15.216;2023-04-03T16:50:10;1.92;;;1.10;;
1677;SDS011;6034;46.864;15.216;2023-04-03T16:52:38;1.80;;;1.50;;
1677;SDS011;6034;46.864;15.216;2023-04-03T16:55:06;2.63;;;1.30;;
1677;SDS011;6034;46.864;15.216;2023-04-03T16:57:34;2.60;;;1.70;;
1677;SDS011;6034;46.864;15.216;2023-04-03T17:00:02;2.30;;;1.67;;
1677;SDS011;6034;46.864;15.216;2023-04-03T17:02:32;2.50;;;1.50;;
1677;SDS011;6034;46.864;15.216;2023-04-03T17:05:00;3.63;;;1.55;;
1677;SDS011;6034;46.864;15.216;2023-04-03T17:07:27;2.42;;;1.40;;
1677;SDS011;6034;46.864;15.216;2023-04-03T17:09:55;2.40;;;1.50;;
1677;SDS011;6034;46.864;15.216;2023-04-03T17:12:22;2.35;;;1.70;;
1677;SDS011;6034;46.864;15.216;2023-04-03T17:14:50;2.30;;;1.70;;
1677;SDS011;6034;46.864;15.216;2023-04-03T17:17:18;2.50;;;1.80;;
1677;SDS011;6034;46.864;15.216;2023-04-03T17:19:50;2.25;;;1.75;;
1677;SDS011;6034;46.864;15.216;2023-04-03T17:22:19;1.73;;;1.40;;
1677;SDS011;6034;46.864;15.216;2023-04-03T17:24:47;2.28;;;1.50;;
1677;SDS011;6034;46.864;15.216;2023-04-03T17:27:15;2.67;;;1.98;;
1677;SDS011;6034;46.864;15.216;2023-04-03T17:29:42;2.78;;;1.85;;
1677;SDS011;6034;46.864;15.216;2023-04-03T17:32:10;3.13;;;1.55;;
1677;SDS011;6034;46.864;15.216;2023-04-03T17:34:37;2.00;;;1.58;;
1677;SDS011;6034;46.864;15.216;2023-04-03T17:37:07;1.88;;;1.48;;
1677;SDS011;6034;46.864;15.216;2023-04-03T17:39:35;2.03;;;1.80;;
1677;SDS011;6034;46.864;15.216;2023-04-03T17:42:03;2.17;;;1.67;;
1677;SDS011;6034;46.864;15.216;2023-04-03T17:44:31;1.90;;;1.70;;
1677;SDS011;6034;46.864;15.216;2023-04-03T17:47:00;1.88;;;1.60;;
1677;SDS011;6034;46.864;15.216;2023-04-03T17:49:28;5.68;;;2.00;;
1677;SDS011;6034;46.864;15.216;2023-04-03T17:51:58;2.60;;;2.00;;
1677;SDS011;6034;46.864;15.216;2023-04-03T17:54:28;3.08;;;1.95;;
1677;SDS011;6034;46.864;15.216;2023-04-03T17:56:56;2.28;;;1.77;;
1677;SDS011;6034;46.864;15.216;2023-04-03T17:59:25;3.50;;;2.33;;
1677;SDS011;6034;46.864;15.216;2023-04-03T18:01:53;3.03;;;2.40;;
1677;SDS011;6034;46.864;15.216;2023-04-03T18:04:21;4.68;;;2.60;;
1677;SDS011;6034;46.864;15.216;2023-04-03T18:06:50;3.50;;;2.88;;
1677;SDS011;6034;46.864;15.216;2023-04-03T18:09:20;3.45;;;2.47;;
1677;SDS011;6034;46.864;15.216;2023-04-03T18:11:52;3.35;;;2.10;;
1677;SDS011;6034;46.864;15.216;2023-04-03T18:14:23;3.47;;;2.60;;
1677;SDS011;6034;46.864;15.216;2023-04-03T18:16:52;6.70;;;2.58;;
1677;SDS011;6034;46.864;15.216;2023-04-03T18:19:21;4.13;;;2.50;;
1677;SDS011;6034;46.864;15.216;2023-04-03T18:21:50;2.35;;;1.85;;
1677;SDS011;6034;46.864;15.216;2023-04-03T18:24:22;3.33;;;2.00;;
1677;SDS011;6034;46.864;15.216;2023-04-03T18:26:54;4.78;;;2.58;;
1677;SDS011;6034;46.864;15.216;2023-04-03T18:29:25;4.30;;;2.70;;
1677;SDS011;6034;46.864;15.216;2023-04-03T18:31:59;2.70;;;2.15;;
1677;SDS011;6034;46.864;15.216;2023-04-03T18:34:29;3.15;;;2.47;;
1677;SDS011;6034;46.864;15.216;2023-04-03T18:36:59;2.78;;;2.30;;
1677;SDS011;6034;46.864;15.216;2023-04-03T18:39:27;3.97;;;1.95;;
1677;SDS011;6034;46.864;15.216;2023-04-03T18:42:02;3.70;;;2.90;;
1677;SDS011;6034;46.864;15.216;2023-04-03T18:44:34;3.83;;;2.30;;
1677;SDS011;6034;46.864;15.216;2023-04-03T18:47:05;4.57;;;2.90;;
1677;SDS011;6034;46.864;15.216;2023-04-03T18:49:35;5.07;;;2.55;;
1677;SDS011;6034;46.864;15.216;2023-04-03T18:52:06;3.42;;;2.65;;
1677;SDS011;6034;46.864;15.216;2023-04-03T18:54:37;4.78;;;2.80;;
1677;SDS011;6034;46.864;15.216;2023-04-03T18:57:07;3.60;;;2.50;;
1677;SDS011;6034;46.864;15.216;2023-04-03T18:59:37;3.15;;;2.47;;
1677;SDS011;6034;46.864;15.216;2023-04-03T19:02:06;3.30;;;2.45;;
1677;SDS011;6034;46.864;15.216;2023-04-03T19:04:37;3.70;;;2.67;;
1677;SDS011;6034;46.864;15.216;2023-04-03T19:07:07;3.70;;;2.58;;
1677;SDS011;6034;46.864;15.216;2023-04-03T19:09:35;2.85;;;2.20;;
1677;SDS011;6034;46.864;15.216;2023-04-03T19:12:04;5.70;;;2.25;;
1677;SDS011;6034;46.864;15.216;2023-04-03T19:14:35;3.42;;;2.42;;
1677;SDS011;6034;46.864;15.216;2023-04-03T19:17:07;5.00;;;2.53;;
1677;SDS011;6034;46.864;15.216;2023-04-03T19:19:35;2.70;;;2.00;;
1677;SDS011;6034;46.864;15.216;2023-04-03T19:22:04;3.60;;;2.78;;
1677;SDS011;6034;46.864;15.216;2023-04-03T19:24:33;5.50;;;3.30;;
1677;SDS011;6034;46.864;15.216;2023-04-03T19:27:02;3.53;;;3.08;;
1677;SDS011;6034;46.864;15.216;2023-04-03T19:29:31;3.88;;;2.85;;
1677;SDS011;6034;46.864;15.216;2023-04-03T19:32:02;2.95;;;2.60;;
1677;SDS011;6034;46.864;15.216;2023-04-03T19:34:32;3.63;;;2.20;;
1677;SDS011;6034;46.864;15.216;2023-04-03T19:37:03;4.82;;;2.80;;
1677;SDS011;6034;46.864;15.216;2023-04-03T19:39:32;3.22;;;2.47;;
1677;SDS011;6034;46.864;15.216;2023-04-03T19:42:03;4.80;;;2.78;;
1677;SDS011;6034;46.864;15.216;2023-04-03T19:44:33;4.40;;;2.95;;
1677;SDS011;6034;46.864;15.216;2023-04-03T19:47:04;4.32;;;2.80;;
1677;SDS011;6034;46.864;15.216;2023-04-03T19:49:33;4.07;;;2.78;;
1677;SDS011;6034;46.864;15.216;2023-04-03T19:52:03;3.75;;;2.88;;
1677;SDS011;6034;46.864;15.216;2023-04-03T19:54:31;3.90;;;2.65;;
1677;SDS011;6034;46.864;15.216;2023-04-03T19:57:01;4.20;;;2.40;;
1677;SDS011;6034;46.864;15.216;2023-04-03T19:59:30;4.18;;;2.95;;
1677;SDS011;6034;46.864;15.216;2023-04-03T20:01:58;4.82;;;2.28;;
1677;SDS011;6034;46.864;15.216;2023-04-03T20:04:28;3.95;;;2.50;;
1677;SDS011;6034;46.864;15.216;2023-04-03T20:06:57;4.38;;;2.33;;
1677;SDS011;6034;46.864;15.216;2023-04-03T20:09:26;3.28;;;2.60;;
1677;SDS011;6034;46.864;15.216;2023-04-03T20:11:55;5.38;;;2.40;;
1677;SDS011;6034;46.864;15.216;2023-04-03T20:14:25;2.80;;;2.03;;
1677;SDS011;6034;46.864;15.216;2023-04-03T20:16:53;5.25;;;2.70;;
1677;SDS011;6034;46.864;15.216;2023-04-03T20:19:22;3.63;;;2.47;;
1677;SDS011;6034;46.864;15.216;2023-04-03T20:21:52;6.22;;;2.40;;
1677;SDS011;6034;46.864;15.216;2023-04-03T20:24:20;2.83;;;2.20;;
1677;SDS011;6034;46.864;15.216;2023-04-03T20:26:47;2.78;;;1.95;;
1677;SDS011;6034;46.864;15.216;2023-04-03T20:29:15;2.40;;;1.85;;
1677;SDS011;6034;46.864;15.216;2023-04-03T20:31:43;3.80;;;2.42;;
1677;SDS011;6034;46.864;15.216;2023-04-03T20:34:11;4.38;;;2.25;;
1677;SDS011;6034;46.864;15.216;2023-04-03T20:36:40;2.72;;;2.03;;
1677;SDS011;6034;46.864;15.216;2023-04-03T20:39:13;4.68;;;2.10;;
1677;SDS011;6034;46.864;15.216;2023-04-03T20:41:42;2.53;;;2.10;;
1677;SDS011;6034;46.864;15.216;2023-04-03T20:44:10;2.20;;;1.75;;